sensor_id;sensor_type;location;lat;lon;timestamp;temperature;humidity
20829;DHT22;10575;50.124;8.582;2023-07-20T00:01:47;22.80;73.90
20829;DHT22;10575;50.124;8.582;2023-07-20T00:04:14;22.70;74.30
20829;DHT22;10575;50.124;8.582;2023-07-20T00:06:42;22.70;74.60
20829;DHT22;10575;50.124;8.582;2023-07-20T00:09:08;22.70;74.80
20829;DHT22;10575;50.124;8.582;2023-07-20T00:11:36;22.50;75.40
20829;DHT22;10575;50.124;8.582;2023-07-20T00:14:03;22.50;75.40
20829;DHT22;10575;50.124;8.582;2023-07-20T00:16:29;22.40;75.80
20829;DHT22;10575;50.124;8.582;2023-07-20T00:18:55;22.30;76.50
20829;DHT22;10575;50.124;8.582;2023-07-20T00:21:20;22.30;76.60
20829;DHT22;10575;50.124;8.582;2023-07-20T00:23:46;22.10;77.40
20829;DHT22;10575;50.124;8.582;2023-07-20T00:26:11;22.10;77.50
20829;DHT22;10575;50.124;8.582;2023-07-20T00:28:37;22.10;78.20
20829;DHT22;10575;50.124;8.582;2023-07-20T00:31:04;22.10;78.10
20829;DHT22;10575;50.124;8.582;2023-07-20T00:33:30;22.10;78.40
20829;DHT22;10575;50.124;8.582;2023-07-20T00:35:55;22.10;78.60
20829;DHT22;10575;50.124;8.582;2023-07-20T00:38:21;22.10;78.70
20829;DHT22;10575;50.124;8.582;2023-07-20T00:40:46;22.10;79.40
20829;DHT22;10575;50.124;8.582;2023-07-20T00:43:13;22.00;79.50
20829;DHT22;10575;50.124;8.582;2023-07-20T00:45:39;22.00;79.80
20829;DHT22;10575;50.124;8.582;2023-07-20T00:48:11;21.90;80.40
20829;DHT22;10575;50.124;8.582;2023-07-20T00:50:43;21.90;80.50
20829;DHT22;10575;50.124;8.582;2023-07-20T00:53:09;21.70;81.30
20829;DHT22;10575;50.124;8.582;2023-07-20T00:55:34;21.60;81.90
20829;DHT22;10575;50.124;8.582;2023-07-20T00:58:00;21.70;82.40
20829;DHT22;10575;50.124;8.582;2023-07-20T01:00:26;21.70;82.60
20829;DHT22;10575;50.124;8.582;2023-07-20T01:02:53;21.60;83.00
20829;DHT22;10575;50.124;8.582;2023-07-20T01:05:19;21.60;84.00
20829;DHT22;10575;50.124;8.582;2023-07-20T01:08:06;21.50;84.70
20829;DHT22;10575;50.124;8.582;2023-07-20T01:10:51;21.60;85.00
20829;DHT22;10575;50.124;8.582;2023-07-20T01:13:20;21.50;85.60
20829;DHT22;10575;50.124;8.582;2023-07-20T01:15:50;21.50;86.00
20829;DHT22;10575;50.124;8.582;2023-07-20T01:18:18;21.50;86.20
20829;DHT22;10575;50.124;8.582;2023-07-20T01:20:44;21.40;86.70
20829;DHT22;10575;50.124;8.582;2023-07-20T01:23:41;21.40;87.30
20829;DHT22;10575;50.124;8.582;2023-07-20T01:26:37;21.40;87.90
20829;DHT22;10575;50.124;8.582;2023-07-20T01:31:41;21.30;89.30
20829;DHT22;10575;50.124;8.582;2023-07-20T01:34:08;21.20;89.50
20829;DHT22;10575;50.124;8.582;2023-07-20T01:36:38;21.20;90.30
20829;DHT22;10575;50.124;8.582;2023-07-20T01:39:04;21.20;90.70
20829;DHT22;10575;50.124;8.582;2023-07-20T01:41:31;21.10;91.10
20829;DHT22;10575;50.124;8.582;2023-07-20T01:44:00;21.00;91.40
20829;DHT22;10575;50.124;8.582;2023-07-20T01:46:26;21.00;92.10
20829;DHT22;10575;50.124;8.582;2023-07-20T01:48:52;20.90;92.60
20829;DHT22;10575;50.124;8.582;2023-07-20T01:51:24;20.90;92.90
20829;DHT22;10575;50.124;8.582;2023-07-20T01:53:49;20.90;93.20
20829;DHT22;10575;50.124;8.582;2023-07-20T01:56:15;20.90;93.50
20829;DHT22;10575;50.124;8.582;2023-07-20T01:58:40;20.90;93.80
20829;DHT22;10575;50.124;8.582;2023-07-20T02:01:06;20.80;93.70
20829;DHT22;10575;50.124;8.582;2023-07-20T02:03:31;20.80;94.40
20829;DHT22;10575;50.124;8.582;2023-07-20T02:06:16;20.80;94.70
20829;DHT22;10575;50.124;8.582;2023-07-20T02:08:50;20.90;94.90
20829;DHT22;10575;50.124;8.582;2023-07-20T02:11:19;20.80;94.70
20829;DHT22;10575;50.124;8.582;2023-07-20T02:13:44;20.80;95.40
20829;DHT22;10575;50.124;8.582;2023-07-20T02:16:10;20.80;95.60
20829;DHT22;10575;50.124;8.582;2023-07-20T02:18:36;20.80;95.80
20829;DHT22;10575;50.124;8.582;2023-07-20T02:21:02;20.80;96.10
20829;DHT22;10575;50.124;8.582;2023-07-20T02:23:27;20.50;96.70
20829;DHT22;10575;50.124;8.582;2023-07-20T02:25:53;20.40;98.00
20829;DHT22;10575;50.124;8.582;2023-07-20T02:28:19;20.30;98.60
20829;DHT22;10575;50.124;8.582;2023-07-20T02:30:44;20.20;99.30
20829;DHT22;10575;50.124;8.582;2023-07-20T02:33:10;20.30;99.40
20829;DHT22;10575;50.124;8.582;2023-07-20T02:35:35;20.30;99.00
20829;DHT22;10575;50.124;8.582;2023-07-20T02:38:01;20.20;99.90
20829;DHT22;10575;50.124;8.582;2023-07-20T02:40:26;20.10;99.90
20829;DHT22;10575;50.124;8.582;2023-07-20T02:42:53;20.10;99.90
20829;DHT22;10575;50.124;8.582;2023-07-20T02:45:19;19.90;99.90
20829;DHT22;10575;50.124;8.582;2023-07-20T02:47:44;19.80;99.90
20829;DHT22;10575;50.124;8.582;2023-07-20T02:50:10;19.70;99.90
20829;DHT22;10575;50.124;8.582;2023-07-20T02:52:36;19.40;99.90
20829;DHT22;10575;50.124;8.582;2023-07-20T02:55:02;19.20;99.90
20829;DHT22;10575;50.124;8.582;2023-07-20T02:57:27;19.20;99.90
20829;DHT22;10575;50.124;8.582;2023-07-20T02:59:53;19.40;99.90
20829;DHT22;10575;50.124;8.582;2023-07-20T03:02:19;19.50;99.90
20829;DHT22;10575;50.124;8.582;2023-07-20T03:04:44;19.60;99.90
20829;DHT22;10575;50.124;8.582;2023-07-20T03:07:10;19.80;99.90
20829;DHT22;10575;50.124;8.582;2023-07-20T03:09:35;19.90;99.90
20829;DHT22;10575;50.124;8.582;2023-07-20T03:12:01;20.00;99.90
20829;DHT22;10575;50.124;8.582;2023-07-20T03:14:30;19.90;99.90
20829;DHT22;10575;50.124;8.582;2023-07-20T03:16:55;20.00;99.90
20829;DHT22;10575;50.124;8.582;2023-07-20T03:19:21;20.00;99.90
20829;DHT22;10575;50.124;8.582;2023-07-20T03:21:46;20.10;99.90
20829;DHT22;10575;50.124;8.582;2023-07-20T03:24:12;20.20;99.90
20829;DHT22;10575;50.124;8.582;2023-07-20T03:26:43;20.40;99.90
20829;DHT22;10575;50.124;8.582;2023-07-20T03:29:14;20.40;99.90
20829;DHT22;10575;50.124;8.582;2023-07-20T03:31:44;20.40;99.90
20829;DHT22;10575;50.124;8.582;2023-07-20T03:34:10;20.40;99.90
20829;DHT22;10575;50.124;8.582;2023-07-20T03:36:35;20.30;99.90
20829;DHT22;10575;50.124;8.582;2023-07-20T03:39:01;20.40;99.90
20829;DHT22;10575;50.124;8.582;2023-07-20T03:41:28;20.40;99.90
20829;DHT22;10575;50.124;8.582;2023-07-20T03:43:53;20.40;99.90
20829;DHT22;10575;50.124;8.582;2023-07-20T03:46:19;20.40;99.90
20829;DHT22;10575;50.124;8.582;2023-07-20T03:48:45;20.40;99.90
20829;DHT22;10575;50.124;8.582;2023-07-20T03:51:10;20.30;99.90
20829;DHT22;10575;50.124;8.582;2023-07-20T03:53:36;20.20;99.90
20829;DHT22;10575;50.124;8.582;2023-07-20T03:56:01;20.10;99.90
20829;DHT22;10575;50.124;8.582;2023-07-20T03:58:27;20.00;99.90
20829;DHT22;10575;50.124;8.582;2023-07-20T04:00:53;19.90;99.90
20829;DHT22;10575;50.124;8.582;2023-07-20T04:03:19;19.70;99.90
20829;DHT22;10575;50.124;8.582;2023-07-20T04:05:45;19.60;99.90
20829;DHT22;10575;50.124;8.582;2023-07-20T04:08:11;19.40;99.90
20829;DHT22;10575;50.124;8.582;2023-07-20T04:10:37;19.20;99.90
20829;DHT22;10575;50.124;8.582;2023-07-20T04:13:03;19.30;99.90
20829;DHT22;10575;50.124;8.582;2023-07-20T04:15:29;19.50;99.90
20829;DHT22;10575;50.124;8.582;2023-07-20T04:17:56;19.70;99.90
20829;DHT22;10575;50.124;8.582;2023-07-20T04:20:23;19.90;99.90
20829;DHT22;10575;50.124;8.582;2023-07-20T04:22:49;20.00;99.90
20829;DHT22;10575;50.124;8.582;2023-07-20T04:25:15;20.10;99.90
20829;DHT22;10575;50.124;8.582;2023-07-20T04:27:40;20.10;99.90
20829;DHT22;10575;50.124;8.582;2023-07-20T04:30:17;20.20;99.90
20829;DHT22;10575;50.124;8.582;2023-07-20T04:32:45;20.30;99.90
20829;DHT22;10575;50.124;8.582;2023-07-20T04:38:01;20.40;99.90
20829;DHT22;10575;50.124;8.582;2023-07-20T04:40:26;20.50;99.90
20829;DHT22;10575;50.124;8.582;2023-07-20T04:42:51;20.50;99.90
20829;DHT22;10575;50.124;8.582;2023-07-20T04:49:06;20.50;99.90
20829;DHT22;10575;50.124;8.582;2023-07-20T04:51:31;20.50;99.90
20829;DHT22;10575;50.124;8.582;2023-07-20T04:53:57;20.60;99.90
20829;DHT22;10575;50.124;8.582;2023-07-20T04:56:24;20.70;99.90
20829;DHT22;10575;50.124;8.582;2023-07-20T04:58:50;20.70;99.90
20829;DHT22;10575;50.124;8.582;2023-07-20T05:01:15;20.70;99.90
20829;DHT22;10575;50.124;8.582;2023-07-20T05:03:40;20.80;99.90
20829;DHT22;10575;50.124;8.582;2023-07-20T05:06:06;20.80;99.90
20829;DHT22;10575;50.124;8.582;2023-07-20T05:08:31;20.70;99.90
20829;DHT22;10575;50.124;8.582;2023-07-20T05:10:57;20.60;99.90
20829;DHT22;10575;50.124;8.582;2023-07-20T05:13:23;20.60;99.90
20829;DHT22;10575;50.124;8.582;2023-07-20T05:15:51;20.60;99.90
20829;DHT22;10575;50.124;8.582;2023-07-20T05:18:18;20.60;99.90
20829;DHT22;10575;50.124;8.582;2023-07-20T05:20:48;20.60;99.90
20829;DHT22;10575;50.124;8.582;2023-07-20T05:23:14;20.60;99.90
20829;DHT22;10575;50.124;8.582;2023-07-20T05:25:40;20.70;99.90
20829;DHT22;10575;50.124;8.582;2023-07-20T05:28:06;20.70;99.90
20829;DHT22;10575;50.124;8.582;2023-07-20T05:30:32;20.80;99.90
20829;DHT22;10575;50.124;8.582;2023-07-20T05:32:57;20.90;99.90
20829;DHT22;10575;50.124;8.582;2023-07-20T05:35:23;20.60;99.90
20829;DHT22;10575;50.124;8.582;2023-07-20T05:37:49;20.60;99.90
20829;DHT22;10575;50.124;8.582;2023-07-20T05:40:15;20.80;99.90
20829;DHT22;10575;50.124;8.582;2023-07-20T05:42:44;21.10;99.90
20829;DHT22;10575;50.124;8.582;2023-07-20T05:45:11;21.40;99.90
20829;DHT22;10575;50.124;8.582;2023-07-20T05:47:37;21.70;99.90
20829;DHT22;10575;50.124;8.582;2023-07-20T05:50:04;22.10;99.90
20829;DHT22;10575;50.124;8.582;2023-07-20T05:52:30;22.30;99.90
20829;DHT22;10575;50.124;8.582;2023-07-20T05:54:56;22.50;99.90
20829;DHT22;10575;50.124;8.582;2023-07-20T05:57:21;23.20;99.90
20829;DHT22;10575;50.124;8.582;2023-07-20T05:59:47;23.50;99.90
20829;DHT22;10575;50.124;8.582;2023-07-20T06:02:14;24.60;99.90
20829;DHT22;10575;50.124;8.582;2023-07-20T06:04:43;25.30;99.90
20829;DHT22;10575;50.124;8.582;2023-07-20T06:07:13;26.50;97.70
20829;DHT22;10575;50.124;8.582;2023-07-20T06:09:40;27.90;93.20
20829;DHT22;10575;50.124;8.582;2023-07-20T06:12:06;27.50;91.00
20829;DHT22;10575;50.124;8.582;2023-07-20T06:14:31;26.70;92.00
20829;DHT22;10575;50.124;8.582;2023-07-20T06:16:57;26.60;91.90
20829;DHT22;10575;50.124;8.582;2023-07-20T06:19:22;26.30;91.60
20829;DHT22;10575;50.124;8.582;2023-07-20T06:21:48;26.00;92.10
20829;DHT22;10575;50.124;8.582;2023-07-20T06:24:15;25.60;93.00
20829;DHT22;10575;50.124;8.582;2023-07-20T06:26:40;25.30;93.20
20829;DHT22;10575;50.124;8.582;2023-07-20T06:29:06;25.20;94.10
20829;DHT22;10575;50.124;8.582;2023-07-20T06:31:34;25.40;93.00
20829;DHT22;10575;50.124;8.582;2023-07-20T06:34:00;25.90;93.20
20829;DHT22;10575;50.124;8.582;2023-07-20T06:36:26;26.80;92.00
20829;DHT22;10575;50.124;8.582;2023-07-20T06:38:52;27.60;90.30
20829;DHT22;10575;50.124;8.582;2023-07-20T06:41:18;28.40;87.80
20829;DHT22;10575;50.124;8.582;2023-07-20T06:43:44;29.40;82.80
20829;DHT22;10575;50.124;8.582;2023-07-20T06:46:09;30.10;80.80
20829;DHT22;10575;50.124;8.582;2023-07-20T06:48:38;30.90;76.30
20829;DHT22;10575;50.124;8.582;2023-07-20T06:51:03;31.90;70.60
20829;DHT22;10575;50.124;8.582;2023-07-20T06:53:29;32.20;66.30
20829;DHT22;10575;50.124;8.582;2023-07-20T06:55:55;31.80;66.90
20829;DHT22;10575;50.124;8.582;2023-07-20T06:58:24;31.10;68.50
20829;DHT22;10575;50.124;8.582;2023-07-20T07:00:49;31.60;66.60
20829;DHT22;10575;50.124;8.582;2023-07-20T07:03:15;32.60;64.90
20829;DHT22;10575;50.124;8.582;2023-07-20T07:05:41;34.00;60.30
20829;DHT22;10575;50.124;8.582;2023-07-20T07:08:07;35.60;55.20
20829;DHT22;10575;50.124;8.582;2023-07-20T07:10:34;35.30;53.20
20829;DHT22;10575;50.124;8.582;2023-07-20T07:13:00;34.30;55.20
20829;DHT22;10575;50.124;8.582;2023-07-20T07:15:26;33.70;55.30
20829;DHT22;10575;50.124;8.582;2023-07-20T07:17:52;32.00;58.20
20829;DHT22;10575;50.124;8.582;2023-07-20T07:20:18;32.20;58.90
20829;DHT22;10575;50.124;8.582;2023-07-20T07:22:44;34.30;56.00
20829;DHT22;10575;50.124;8.582;2023-07-20T07:25:19;35.20;53.00
20829;DHT22;10575;50.124;8.582;2023-07-20T07:27:48;36.30;52.00
20829;DHT22;10575;50.124;8.582;2023-07-20T07:30:15;37.20;48.90
20829;DHT22;10575;50.124;8.582;2023-07-20T07:32:41;39.20;46.40
20829;DHT22;10575;50.124;8.582;2023-07-20T07:35:07;39.10;43.90
20829;DHT22;10575;50.124;8.582;2023-07-20T07:37:32;39.70;43.60
20829;DHT22;10575;50.124;8.582;2023-07-20T07:39:58;39.90;41.30
20829;DHT22;10575;50.124;8.582;2023-07-20T07:42:23;37.70;43.60
20829;DHT22;10575;50.124;8.582;2023-07-20T07:44:49;36.10;45.10
20829;DHT22;10575;50.124;8.582;2023-07-20T07:47:14;34.30;49.10
20829;DHT22;10575;50.124;8.582;2023-07-20T07:49:40;34.00;50.00
20829;DHT22;10575;50.124;8.582;2023-07-20T07:52:05;33.80;50.00
20829;DHT22;10575;50.124;8.582;2023-07-20T07:54:31;32.30;52.10
20829;DHT22;10575;50.124;8.582;2023-07-20T07:56:57;30.20;56.40
20829;DHT22;10575;50.124;8.582;2023-07-20T07:59:22;29.70;58.60
20829;DHT22;10575;50.124;8.582;2023-07-20T08:01:48;30.10;58.40
20829;DHT22;10575;50.124;8.582;2023-07-20T08:04:13;32.60;52.80
20829;DHT22;10575;50.124;8.582;2023-07-20T08:06:39;33.80;51.50
20829;DHT22;10575;50.124;8.582;2023-07-20T08:09:05;34.60;49.40
20829;DHT22;10575;50.124;8.582;2023-07-20T08:11:30;33.80;50.50
20829;DHT22;10575;50.124;8.582;2023-07-20T08:13:59;33.10;53.60
20829;DHT22;10575;50.124;8.582;2023-07-20T08:16:25;36.30;48.80
20829;DHT22;10575;50.124;8.582;2023-07-20T08:18:51;39.60;43.70
20829;DHT22;10575;50.124;8.582;2023-07-20T08:21:16;43.40;36.90
20829;DHT22;10575;50.124;8.582;2023-07-20T08:23:42;43.90;35.50
20829;DHT22;10575;50.124;8.582;2023-07-20T08:26:08;41.50;37.00
20829;DHT22;10575;50.124;8.582;2023-07-20T08:29:02;41.50;37.20
20829;DHT22;10575;50.124;8.582;2023-07-20T08:31:52;41.20;37.60
20829;DHT22;10575;50.124;8.582;2023-07-20T08:34:18;43.00;35.40
20829;DHT22;10575;50.124;8.582;2023-07-20T08:36:44;45.20;31.90
20829;DHT22;10575;50.124;8.582;2023-07-20T08:39:15;45.00;31.00
20829;DHT22;10575;50.124;8.582;2023-07-20T08:41:43;45.60;31.00
20829;DHT22;10575;50.124;8.582;2023-07-20T08:44:09;46.10;30.00
20829;DHT22;10575;50.124;8.582;2023-07-20T08:46:38;44.40;31.20
20829;DHT22;10575;50.124;8.582;2023-07-20T08:49:04;45.70;29.60
20829;DHT22;10575;50.124;8.582;2023-07-20T08:51:30;46.40;29.20
20829;DHT22;10575;50.124;8.582;2023-07-20T08:53:56;46.30;28.50
20829;DHT22;10575;50.124;8.582;2023-07-20T08:56:24;46.00;28.50
20829;DHT22;10575;50.124;8.582;2023-07-20T08:58:52;44.10;29.50
20829;DHT22;10575;50.124;8.582;2023-07-20T09:01:19;41.10;31.80
20829;DHT22;10575;50.124;8.582;2023-07-20T09:03:45;39.20;34.90
20829;DHT22;10575;50.124;8.582;2023-07-20T09:06:12;36.20;39.70
20829;DHT22;10575;50.124;8.582;2023-07-20T09:08:41;33.60;43.50
20829;DHT22;10575;50.124;8.582;2023-07-20T09:11:07;33.10;44.20
20829;DHT22;10575;50.124;8.582;2023-07-20T09:13:37;32.60;45.50
20829;DHT22;10575;50.124;8.582;2023-07-20T09:16:02;31.20;48.40
20829;DHT22;10575;50.124;8.582;2023-07-20T09:18:31;30.20;50.70
20829;DHT22;10575;50.124;8.582;2023-07-20T09:21:04;30.10;51.20
20829;DHT22;10575;50.124;8.582;2023-07-20T09:23:35;30.00;51.20
20829;DHT22;10575;50.124;8.582;2023-07-20T09:26:12;29.50;51.70
20829;DHT22;10575;50.124;8.582;2023-07-20T09:28:57;28.50;55.00
20829;DHT22;10575;50.124;8.582;2023-07-20T09:31:23;26.80;59.10
20829;DHT22;10575;50.124;8.582;2023-07-20T09:33:50;26.30;60.20
20829;DHT22;10575;50.124;8.582;2023-07-20T09:36:23;26.10;61.70
20829;DHT22;10575;50.124;8.582;2023-07-20T09:38:54;26.10;62.00
20829;DHT22;10575;50.124;8.582;2023-07-20T09:41:21;26.80;60.00
20829;DHT22;10575;50.124;8.582;2023-07-20T09:43:47;27.40;57.70
20829;DHT22;10575;50.124;8.582;2023-07-20T09:46:12;27.60;59.00
20829;DHT22;10575;50.124;8.582;2023-07-20T09:48:39;27.80;57.60
20829;DHT22;10575;50.124;8.582;2023-07-20T09:51:05;28.10;57.50
20829;DHT22;10575;50.124;8.582;2023-07-20T09:53:33;27.90;58.70
20829;DHT22;10575;50.124;8.582;2023-07-20T09:55:58;28.00;58.00
20829;DHT22;10575;50.124;8.582;2023-07-20T09:58:26;28.00;57.80
20829;DHT22;10575;50.124;8.582;2023-07-20T10:00:56;28.20;57.10
20829;DHT22;10575;50.124;8.582;2023-07-20T10:03:28;28.60;57.00
20829;DHT22;10575;50.124;8.582;2023-07-20T10:06:00;28.70;55.80
20829;DHT22;10575;50.124;8.582;2023-07-20T10:08:29;29.00;54.10
20829;DHT22;10575;50.124;8.582;2023-07-20T10:10:57;29.20;55.00
20829;DHT22;10575;50.124;8.582;2023-07-20T10:13:26;29.10;55.20
20829;DHT22;10575;50.124;8.582;2023-07-20T10:16:02;29.00;54.70
20829;DHT22;10575;50.124;8.582;2023-07-20T10:18:44;29.10;55.30
20829;DHT22;10575;50.124;8.582;2023-07-20T10:21:14;29.00;57.50
20829;DHT22;10575;50.124;8.582;2023-07-20T10:23:42;29.00;55.60
20829;DHT22;10575;50.124;8.582;2023-07-20T10:26:08;29.30;55.30
20829;DHT22;10575;50.124;8.582;2023-07-20T10:28:34;29.10;55.00
20829;DHT22;10575;50.124;8.582;2023-07-20T10:31:00;29.10;54.90
20829;DHT22;10575;50.124;8.582;2023-07-20T10:33:26;29.20;54.60
20829;DHT22;10575;50.124;8.582;2023-07-20T10:35:57;29.30;54.80
20829;DHT22;10575;50.124;8.582;2023-07-20T10:38:55;28.90;56.60
20829;DHT22;10575;50.124;8.582;2023-07-20T10:41:42;29.00;56.40
20829;DHT22;10575;50.124;8.582;2023-07-20T10:44:08;29.00;55.70
20829;DHT22;10575;50.124;8.582;2023-07-20T10:46:44;29.10;54.90
20829;DHT22;10575;50.124;8.582;2023-07-20T10:49:12;29.20;54.00
20829;DHT22;10575;50.124;8.582;2023-07-20T10:51:46;29.20;55.10
20829;DHT22;10575;50.124;8.582;2023-07-20T10:57:24;29.20;56.80
20829;DHT22;10575;50.124;8.582;2023-07-20T10:59:50;29.20;52.90
20829;DHT22;10575;50.124;8.582;2023-07-20T11:02:18;29.20;53.90
20829;DHT22;10575;50.124;8.582;2023-07-20T11:04:46;29.20;55.00
20829;DHT22;10575;50.124;8.582;2023-07-20T11:07:16;29.20;55.20
20829;DHT22;10575;50.124;8.582;2023-07-20T11:09:42;28.90;54.70
20829;DHT22;10575;50.124;8.582;2023-07-20T11:12:15;28.60;55.20
20829;DHT22;10575;50.124;8.582;2023-07-20T11:14:43;28.60;55.30
20829;DHT22;10575;50.124;8.582;2023-07-20T11:17:16;28.60;56.70
20829;DHT22;10575;50.124;8.582;2023-07-20T11:19:48;28.50;57.10
20829;DHT22;10575;50.124;8.582;2023-07-20T11:22:17;28.60;55.20
20829;DHT22;10575;50.124;8.582;2023-07-20T11:24:42;28.70;56.30
20829;DHT22;10575;50.124;8.582;2023-07-20T11:27:08;28.70;53.50
20829;DHT22;10575;50.124;8.582;2023-07-20T11:29:35;28.70;54.70
20829;DHT22;10575;50.124;8.582;2023-07-20T11:32:01;28.50;56.00
20829;DHT22;10575;50.124;8.582;2023-07-20T11:34:30;28.50;56.40
20829;DHT22;10575;50.124;8.582;2023-07-20T11:36:56;28.30;56.90
20829;DHT22;10575;50.124;8.582;2023-07-20T11:39:22;28.40;55.40
20829;DHT22;10575;50.124;8.582;2023-07-20T11:41:55;28.50;55.30
20829;DHT22;10575;50.124;8.582;2023-07-20T11:44:23;28.60;55.70
20829;DHT22;10575;50.124;8.582;2023-07-20T11:47:07;28.60;55.80
20829;DHT22;10575;50.124;8.582;2023-07-20T11:49:41;28.10;56.80
20829;DHT22;10575;50.124;8.582;2023-07-20T11:52:08;27.80;57.70
20829;DHT22;10575;50.124;8.582;2023-07-20T11:54:35;27.80;56.20
20829;DHT22;10575;50.124;8.582;2023-07-20T11:57:03;27.90;57.30
20829;DHT22;10575;50.124;8.582;2023-07-20T11:59:28;27.90;57.10
20829;DHT22;10575;50.124;8.582;2023-07-20T12:01:54;28.10;57.70
20829;DHT22;10575;50.124;8.582;2023-07-20T12:04:22;28.10;57.60
20829;DHT22;10575;50.124;8.582;2023-07-20T12:06:48;28.30;56.60
20829;DHT22;10575;50.124;8.582;2023-07-20T12:09:14;28.50;56.40
20829;DHT22;10575;50.124;8.582;2023-07-20T12:11:43;28.80;57.40
20829;DHT22;10575;50.124;8.582;2023-07-20T12:14:09;29.10;54.80
20829;DHT22;10575;50.124;8.582;2023-07-20T12:16:36;29.10;54.70
20829;DHT22;10575;50.124;8.582;2023-07-20T12:21:30;28.80;54.40
20829;DHT22;10575;50.124;8.582;2023-07-20T12:23:57;28.50;56.50
20829;DHT22;10575;50.124;8.582;2023-07-20T12:26:24;28.30;58.40
20829;DHT22;10575;50.124;8.582;2023-07-20T12:28:50;28.00;58.00
20829;DHT22;10575;50.124;8.582;2023-07-20T12:31:16;28.20;56.40
20829;DHT22;10575;50.124;8.582;2023-07-20T12:33:41;28.30;57.00
20829;DHT22;10575;50.124;8.582;2023-07-20T12:36:09;28.50;53.70
20829;DHT22;10575;50.124;8.582;2023-07-20T12:38:34;28.30;54.70
20829;DHT22;10575;50.124;8.582;2023-07-20T12:41:01;28.20;56.10
20829;DHT22;10575;50.124;8.582;2023-07-20T12:43:27;27.90;57.70
20829;DHT22;10575;50.124;8.582;2023-07-20T12:45:52;27.90;57.60
20829;DHT22;10575;50.124;8.582;2023-07-20T12:48:18;28.10;56.40
20829;DHT22;10575;50.124;8.582;2023-07-20T12:50:43;28.00;57.30
20829;DHT22;10575;50.124;8.582;2023-07-20T12:53:09;28.20;55.90
20829;DHT22;10575;50.124;8.582;2023-07-20T12:55:38;28.50;53.70
20829;DHT22;10575;50.124;8.582;2023-07-20T12:58:04;28.60;54.10
20829;DHT22;10575;50.124;8.582;2023-07-20T13:00:30;28.80;52.50
20829;DHT22;10575;50.124;8.582;2023-07-20T13:02:55;28.80;54.30
20829;DHT22;10575;50.124;8.582;2023-07-20T13:05:21;28.60;54.40
20829;DHT22;10575;50.124;8.582;2023-07-20T13:07:46;28.50;52.90
20829;DHT22;10575;50.124;8.582;2023-07-20T13:10:12;28.30;53.50
20829;DHT22;10575;50.124;8.582;2023-07-20T13:12:38;28.20;53.00
20829;DHT22;10575;50.124;8.582;2023-07-20T13:15:05;28.10;52.40
20829;DHT22;10575;50.124;8.582;2023-07-20T13:17:35;28.00;54.50
20829;DHT22;10575;50.124;8.582;2023-07-20T13:20:02;28.10;54.70
20829;DHT22;10575;50.124;8.582;2023-07-20T13:22:30;28.10;55.40
20829;DHT22;10575;50.124;8.582;2023-07-20T13:24:55;28.30;54.90
20829;DHT22;10575;50.124;8.582;2023-07-20T13:27:24;28.20;55.10
20829;DHT22;10575;50.124;8.582;2023-07-20T13:29:51;28.20;54.50
20829;DHT22;10575;50.124;8.582;2023-07-20T13:32:17;28.30;54.00
20829;DHT22;10575;50.124;8.582;2023-07-20T13:34:46;28.70;54.50
20829;DHT22;10575;50.124;8.582;2023-07-20T13:37:12;28.80;52.60
20829;DHT22;10575;50.124;8.582;2023-07-20T13:39:38;28.50;53.30
20829;DHT22;10575;50.124;8.582;2023-07-20T13:42:05;28.00;54.40
20829;DHT22;10575;50.124;8.582;2023-07-20T13:44:31;28.10;54.40
20829;DHT22;10575;50.124;8.582;2023-07-20T13:46:57;27.80;54.80
20829;DHT22;10575;50.124;8.582;2023-07-20T13:49:23;27.70;53.50
20829;DHT22;10575;50.124;8.582;2023-07-20T13:51:49;27.90;54.20
20829;DHT22;10575;50.124;8.582;2023-07-20T13:54:14;27.90;53.30
20829;DHT22;10575;50.124;8.582;2023-07-20T13:56:40;28.00;53.10
20829;DHT22;10575;50.124;8.582;2023-07-20T13:59:06;28.30;52.50
20829;DHT22;10575;50.124;8.582;2023-07-20T14:01:31;28.50;51.60
20829;DHT22;10575;50.124;8.582;2023-07-20T14:03:59;28.70;51.80
20829;DHT22;10575;50.124;8.582;2023-07-20T14:06:25;28.90;50.40
20829;DHT22;10575;50.124;8.582;2023-07-20T14:08:51;29.10;50.50
20829;DHT22;10575;50.124;8.582;2023-07-20T14:11:18;29.10;51.90
20829;DHT22;10575;50.124;8.582;2023-07-20T14:13:44;29.00;49.70
20829;DHT22;10575;50.124;8.582;2023-07-20T14:16:09;28.90;51.20
20829;DHT22;10575;50.124;8.582;2023-07-20T14:18:36;28.50;51.70
20829;DHT22;10575;50.124;8.582;2023-07-20T14:21:01;28.40;52.30
20829;DHT22;10575;50.124;8.582;2023-07-20T14:23:28;28.60;51.10
20829;DHT22;10575;50.124;8.582;2023-07-20T14:25:54;28.70;50.40
20829;DHT22;10575;50.124;8.582;2023-07-20T14:28:20;28.80;48.10
20829;DHT22;10575;50.124;8.582;2023-07-20T14:30:47;28.80;50.90
20829;DHT22;10575;50.124;8.582;2023-07-20T14:33:12;28.80;50.40
20829;DHT22;10575;50.124;8.582;2023-07-20T14:35:38;28.40;51.30
20829;DHT22;10575;50.124;8.582;2023-07-20T14:38:04;27.80;51.80
20829;DHT22;10575;50.124;8.582;2023-07-20T14:40:29;27.60;52.10
20829;DHT22;10575;50.124;8.582;2023-07-20T14:42:58;27.60;52.90
20829;DHT22;10575;50.124;8.582;2023-07-20T14:45:29;27.90;53.00
20829;DHT22;10575;50.124;8.582;2023-07-20T14:47:54;28.00;52.70
20829;DHT22;10575;50.124;8.582;2023-07-20T14:50:20;28.20;52.50
20829;DHT22;10575;50.124;8.582;2023-07-20T14:52:46;28.00;52.30
20829;DHT22;10575;50.124;8.582;2023-07-20T14:55:12;27.80;53.10
20829;DHT22;10575;50.124;8.582;2023-07-20T14:57:37;28.00;53.60
20829;DHT22;10575;50.124;8.582;2023-07-20T15:00:04;28.30;52.70
20829;DHT22;10575;50.124;8.582;2023-07-20T15:02:36;28.20;52.70
20829;DHT22;10575;50.124;8.582;2023-07-20T15:05:02;28.30;51.40
20829;DHT22;10575;50.124;8.582;2023-07-20T15:07:28;28.10;52.80
20829;DHT22;10575;50.124;8.582;2023-07-20T15:09:56;28.10;52.30
20829;DHT22;10575;50.124;8.582;2023-07-20T15:12:22;28.30;51.20
20829;DHT22;10575;50.124;8.582;2023-07-20T15:15:11;28.40;50.50
20829;DHT22;10575;50.124;8.582;2023-07-20T15:17:39;28.40;52.40
20829;DHT22;10575;50.124;8.582;2023-07-20T15:20:06;28.50;51.20
20829;DHT22;10575;50.124;8.582;2023-07-20T15:22:33;28.40;50.70
20829;DHT22;10575;50.124;8.582;2023-07-20T15:24:59;27.90;50.40
20829;DHT22;10575;50.124;8.582;2023-07-20T15:27:26;27.80;52.20
20829;DHT22;10575;50.124;8.582;2023-07-20T15:29:51;27.90;51.80
20829;DHT22;10575;50.124;8.582;2023-07-20T15:32:20;28.00;51.30
20829;DHT22;10575;50.124;8.582;2023-07-20T15:34:46;28.10;50.60
20829;DHT22;10575;50.124;8.582;2023-07-20T15:37:12;28.10;52.10
20829;DHT22;10575;50.124;8.582;2023-07-20T15:39:38;28.10;49.80
20829;DHT22;10575;50.124;8.582;2023-07-20T15:42:04;28.00;51.20
20829;DHT22;10575;50.124;8.582;2023-07-20T15:44:30;28.00;51.90
20829;DHT22;10575;50.124;8.582;2023-07-20T15:46:56;28.00;51.20